Time;durP1;ratioP1;P1;durP2;ratioP2;P2;SDS_P1;SDS_P2;PMS_P1;PMS_P2;Temp;Humidity;BMP_temperature;BMP_pressure;BME280_temperature;BME280_humidity;BME280_pressure;Samples;Min_cycle;Max_cycle;Signal;HPM_P1;HPM_P2
2022/08/30 00:01:31;;;;;;;8.65;3.20;;;;;;;18.13;85.68;101937.53;5032737;28;20061;-51
2022/08/30 00:04:00;;;;;;;8.73;3.60;;;;;;;18.10;85.85;101938.13;5033081;28;20041;-47
2022/08/30 00:06:29;;;;;;;7.55;3.38;;;;;;;18.03;86.42;101932.94;5034376;28;20419;-47
2022/08/30 00:08:58;;;;;;;12.88;4.28;;;;;;;17.91;87.23;101945.47;5019948;28;20385;-47
2022/08/30 00:11:27;;;;;;;8.80;3.22;;;;;;;17.90;87.24;101936.41;5029845;28;20415;-52
2022/08/30 00:13:56;;;;;;;11.10;3.60;;;;;;;17.96;87.04;101937.16;5033051;28;20095;-46
2022/08/30 00:16:25;;;;;;;7.47;3.20;;;;;;;17.96;87.08;101937.16;5032847;28;20416;-47
2022/08/30 00:18:53;;;;;;;8.23;3.60;;;;;;;17.86;87.58;101925.09;5016226;28;20381;-47
2022/08/30 00:21:22;;;;;;;6.93;3.42;;;;;;;17.90;87.57;101932.81;5014672;28;20412;-45
2022/08/30 00:23:50;;;;;;;6.78;3.25;;;;;;;17.91;87.41;101931.69;5033321;28;20049;-47
2022/08/30 00:26:17;;;;;;;8.07;3.50;;;;;;;17.86;87.57;101943.59;5032494;28;20584;-46
2022/08/30 00:28:45;;;;;;;6.90;3.63;;;;;;;17.80;88.08;101931.81;5018689;28;20037;-51
2022/08/30 00:31:13;;;;;;;9.85;3.65;;;;;;;17.82;87.97;101929.59;5016669;28;20052;-52
2022/08/30 00:33:42;;;;;;;10.38;3.15;;;;;;;17.81;87.87;101941.69;5032257;28;20049;-45
2022/08/30 00:36:10;;;;;;;8.02;3.85;;;;;;;17.83;87.87;101939.47;5033987;28;20119;-48
2022/08/30 00:38:37;;;;;;;7.07;3.13;;;;;;;17.77;88.21;101939.78;5033934;28;20048;-47
2022/08/30 00:41:05;;;;;;;9.15;3.53;;;;;;;17.74;88.38;101941.19;5032135;28;20038;-46
2022/08/30 00:43:34;;;;;;;10.75;3.60;;;;;;;17.70;88.54;101931.84;5021564;28;20049;-49
2022/08/30 00:46:06;;;;;;;9.15;3.42;;;;;;;17.70;88.73;101936.53;5025517;28;20459;-53
2022/08/30 00:48:38;;;;;;;11.23;3.67;;;;;;;17.71;88.55;101936.25;5029766;28;20116;-50
2022/08/30 00:51:10;;;;;;;9.82;3.60;;;;;;;17.74;88.31;101935.66;5017491;28;20128;-50
2022/08/30 00:53:42;;;;;;;7.43;3.40;;;;;;;17.68;88.53;101934.09;5017440;28;20042;-51
2022/08/30 00:56:11;;;;;;;8.38;3.20;;;;;;;17.57;89.21;101935.28;5028267;28;20038;-52
2022/08/30 00:58:43;;;;;;;10.18;3.80;;;;;;;17.59;89.04;101933.88;5008975;28;20063;-49
2022/08/30 01:01:13;;;;;;;6.95;3.08;;;;;;;17.61;89.41;101941.88;5013864;28;20460;-49
2022/08/30 01:03:42;;;;;;;9.50;3.72;;;;;;;17.57;89.23;101940.78;5014817;28;20183;-50
2022/08/30 01:06:10;;;;;;;5.68;3.08;;;;;;;17.53;89.65;101943.28;5036149;28;20042;-48
2022/08/30 01:08:38;;;;;;;8.25;3.45;;;;;;;17.51;89.92;101947.44;4983567;28;20508;-48
2022/08/30 01:11:06;;;;;;;10.00;3.83;;;;;;;17.44;90.15;101943.09;5033588;28;20072;-48
2022/08/30 01:13:34;;;;;;;6.70;3.30;;;;;;;17.54;89.64;101949.63;5003722;28;20045;-51
2022/08/30 01:16:03;;;;;;;8.90;3.58;;;;;;;17.56;89.20;101947.41;5023103;28;20046;-49
2022/08/30 01:18:31;;;;;;;9.60;3.70;;;;;;;17.48;90.13;101943.31;5013347;28;20033;-50
2022/08/30 01:21:06;;;;;;;8.60;3.78;;;;;;;17.48;89.56;101948.84;5010310;28;20390;-50
2022/08/30 01:23:37;;;;;;;7.07;3.42;;;;;;;17.45;89.80;101944.72;5025365;28;20033;-49
2022/08/30 01:26:05;;;;;;;7.70;3.25;;;;;;;17.45;89.74;101950.22;5010048;28;20417;-48
2022/08/30 01:28:33;;;;;;;7.15;3.40;;;;;;;17.44;90.20;101962.38;5031344;28;20056;-48
2022/08/30 01:31:01;;;;;;;7.45;3.65;;;;;;;17.43;89.81;101951.63;5032867;28;20041;-50
2022/08/30 01:33:29;;;;;;;7.22;3.78;;;;;;;17.40;90.64;101958.53;5031426;28;20480;-49
2022/08/30 01:36:01;;;;;;;5.90;3.08;;;;;;;17.49;89.85;101958.75;5014546;28;20075;-53
2022/08/30 01:38:37;;;;;;;10.23;3.70;;;;;;;17.44;89.93;101965.13;5033145;28;20049;-50
2022/08/30 01:41:33;;;;;;;8.60;3.97;;;;;;;17.45;89.77;101966.75;5016641;28;20044;-49
2022/08/30 01:44:02;;;;;;;;;;;;;;;17.40;nan;101958.53;5030737;28;20096;-48
2022/08/30 01:46:36;;;;;;;7.93;3.45;;;;;;;17.30;90.93;101958.63;5033153;28;19928;-52
2022/08/30 01:49:07;;;;;;;9.73;3.55;;;;;;;17.27;91.31;101953.69;5031536;28;20045;-49
2022/08/30 01:51:36;;;;;;;7.40;3.58;;;;;;;17.27;91.35;101953.69;5015799;28;20484;-52
2022/08/30 01:54:04;;;;;;;9.25;3.80;;;;;;;17.33;90.82;101955.28;5033148;28;20053;-51
2022/08/30 01:56:32;;;;;;;7.55;3.58;;;;;;;17.32;91.05;101948.13;4998036;28;20167;-53
2022/08/30 01:58:59;;;;;;;9.20;4.13;;;;;;;17.36;90.63;101951.94;5032730;28;20041;-52
2022/08/30 02:01:32;;;;;;;9.10;3.80;;;;;;;17.30;90.92;101953.09;5017176;28;20115;-49
2022/08/30 02:04:00;;;;;;;10.05;3.80;;;;;;;17.28;90.87;101947.06;4997398;28;20041;-49
2022/08/30 02:06:28;;;;;;;9.38;3.90;;;;;;;17.20;91.63;101942.16;5029010;28;20054;-45
2022/08/30 02:08:55;;;;;;;8.10;4.00;;;;;;;17.19;91.75;101946.00;5030088;28;20041;-51
2022/08/30 02:11:24;;;;;;;8.20;3.67;;;;;;;17.20;91.77;101942.16;5029560;28;20041;-51
2022/08/30 02:13:51;;;;;;;9.05;4.32;;;;;;;17.14;92.08;101933.09;5036614;28;20049;-49
2022/08/30 02:16:21;;;;;;;11.70;3.88;;;;;;;17.13;92.16;101939.72;5035415;28;20496;-49
2022/08/30 02:18:51;;;;;;;8.45;3.55;;;;;;;17.13;91.95;101933.41;5005211;28;20049;-51
2022/08/30 02:21:19;;;;;;;11.85;4.55;;;;;;;17.13;92.25;101930.63;5035940;28;20061;-49
2022/08/30 02:23:47;;;;;;;8.38;3.80;;;;;;;17.09;92.15;101929.56;5035246;28;20385;-49
2022/08/30 02:26:15;;;;;;;9.02;3.70;;;;;;;17.04;92.69;101931.22;5034474;28;20111;-51
2022/08/30 02:28:44;;;;;;;7.47;3.75;;;;;;;16.94;93.36;101923.03;5035920;28;20049;-50
2022/08/30 02:31:18;;;;;;;8.35;4.13;;;;;;;16.87;94.11;101933.53;5025336;28;20041;-49
2022/08/30 02:33:49;;;;;;;9.02;3.35;;;;;;;16.86;94.58;101931.91;5035938;28;20037;-49
2022/08/30 02:36:19;;;;;;;6.80;3.92;;;;;;;16.90;93.88;101923.88;5018442;28;20052;-50
2022/08/30 02:38:47;;;;;;;6.40;4.10;;;;;;;16.88;93.95;101924.16;5034626;28;20047;-51
2022/08/30 02:41:15;;;;;;;8.82;4.28;;;;;;;16.88;93.85;101935.16;5031800;28;20056;-46
2022/08/30 02:43:43;;;;;;;8.02;3.70;;;;;;;16.87;94.35;101922.53;5035763;28;20030;-49
2022/08/30 02:46:11;;;;;;;8.35;4.47;;;;;;;16.89;94.37;101930.50;5018350;28;20061;-48
2022/08/30 02:48:39;;;;;;;9.00;3.92;;;;;;;16.80;94.74;101930.25;5033370;28;20048;-49
2022/08/30 02:51:09;;;;;;;7.55;4.15;;;;;;;16.82;94.91;101936.31;5032503;28;20091;-59
2022/08/30 02:53:39;;;;;;;7.07;4.10;;;;;;;16.79;94.98;101931.38;5035468;28;20037;-48
2022/08/30 02:56:07;;;;;;;9.18;4.07;;;;;;;16.77;95.05;101928.06;5035189;28;20037;-50
2022/08/30 02:58:35;;;;;;;7.15;3.47;;;;;;;16.76;95.11;101932.75;5034990;28;20037;-49
2022/08/30 03:01:04;;;;;;;9.70;4.40;;;;;;;16.73;95.13;101927.78;5016654;28;20053;-51
2022/08/30 03:03:32;;;;;;;9.32;4.22;;;;;;;16.69;95.58;101917.63;5018238;28;20053;-51
2022/08/30 03:06:02;;;;;;;9.60;4.47;;;;;;;16.64;95.98;101914.88;5026355;28;20512;-50
2022/08/30 03:08:31;;;;;;;9.18;4.40;;;;;;;16.64;95.91;101915.72;5017838;28;20053;-50
2022/08/30 03:10:59;;;;;;;7.22;4.32;;;;;;;16.63;96.10;101919.56;5019501;28;20049;-48
2022/08/30 03:13:27;;;;;;;12.65;4.53;;;;;;;16.57;96.33;101909.69;5022478;28;20049;-51
2022/08/30 03:15:55;;;;;;;8.18;4.53;;;;;;;16.60;96.34;101918.22;5033313;28;20049;-50
2022/08/30 03:18:24;;;;;;;9.45;4.55;;;;;;;16.60;96.33;101917.41;5034362;28;20377;-51
2022/08/30 03:20:52;;;;;;;11.52;4.57;;;;;;;16.65;95.76;101919.31;5020597;28;20067;-52
2022/08/30 03:23:22;;;;;;;8.73;4.15;;;;;;;16.67;95.89;101917.06;5043622;28;20041;-49
2022/08/30 03:25:50;;;;;;;7.80;4.80;;;;;;;16.65;95.48;101913.81;5016714;28;20041;-52
2022/08/30 03:28:18;;;;;;;11.27;4.80;;;;;;;16.65;95.57;101911.88;5035572;28;20042;-50
2022/08/30 03:30:46;;;;;;;8.20;4.90;;;;;;;16.57;96.22;101912.44;5022533;28;20041;-50
2022/08/30 03:33:13;;;;;;;7.85;4.47;;;;;;;16.56;96.29;101906.13;5040438;28;20048;-49
2022/08/30 03:35:41;;;;;;;7.57;4.28;;;;;;;16.53;95.99;101912.19;5036488;28;20045;-53
2022/08/30 03:38:09;;;;;;;7.15;4.10;;;;;;;16.51;96.48;101914.41;5035177;28;20056;-50
2022/08/30 03:40:37;;;;;;;7.82;4.72;;;;;;;16.58;95.68;101912.16;5036028;28;20056;-49
2022/08/30 03:43:04;;;;;;;9.57;4.80;;;;;;;16.58;95.37;101906.66;5036597;28;20040;-47
2022/08/30 03:45:32;;;;;;;7.22;4.70;;;;;;;16.49;96.26;101916.59;5017961;28;20038;-48
2022/08/30 03:48:01;;;;;;;8.10;4.45;;;;;;;16.46;96.41;101917.16;5006480;28;20045;-50
2022/08/30 03:50:29;;;;;;;6.63;4.50;;;;;;;16.44;96.72;101921.31;5034659;28;20045;-50
2022/08/30 03:52:59;;;;;;;10.00;5.10;;;;;;;16.43;96.79;101912.25;5016460;28;20052;-51
2022/08/30 03:55:29;;;;;;;8.98;5.00;;;;;;;16.38;97.09;101915.00;5033923;28;20049;-50
2022/08/30 03:57:57;;;;;;;8.57;4.75;;;;;;;16.37;97.36;101914.16;5016030;28;20053;-51
2022/08/30 04:00:25;;;;;;;8.68;5.00;;;;;;;16.40;97.08;101913.63;5001016;28;20045;-49
2022/08/30 04:02:52;;;;;;;8.90;4.60;;;;;;;16.43;96.75;101917.75;5032589;28;20041;-49
2022/08/30 04:05:20;;;;;;;13.07;4.90;;;;;;;16.40;96.82;101916.38;5014993;28;20549;-51
2022/08/30 04:07:48;;;;;;;8.55;5.18;;;;;;;16.42;96.64;101916.06;5033052;28;20053;-47
2022/08/30 04:10:16;;;;;;;8.38;4.60;;;;;;;16.40;96.92;101924.63;5032090;28;20041;-50
2022/08/30 04:12:44;;;;;;;9.82;4.97;;;;;;;16.40;96.61;101918.28;5033040;28;20048;-50
2022/08/30 04:15:18;;;;;;;8.95;4.97;;;;;;;16.32;96.97;101918.88;5031901;28;20412;-51
2022/08/30 04:17:46;;;;;;;7.47;5.05;;;;;;;16.25;97.56;101921.09;5015502;28;20038;-53
2022/08/30 04:20:14;;;;;;;6.53;4.32;;;;;;;16.28;97.65;101918.59;5015129;28;20072;-49
2022/08/30 04:22:42;;;;;;;8.63;5.28;;;;;;;16.31;96.96;101923.56;5015262;28;20041;-49
2022/08/30 04:25:10;;;;;;;9.77;4.88;;;;;;;16.23;97.63;101917.78;5032747;28;20048;-51
2022/08/30 04:27:44;;;;;;;10.75;5.68;;;;;;;16.14;98.30;101920.31;5016097;28;20045;-49
2022/08/30 04:30:13;;;;;;;7.20;5.10;;;;;;;16.07;99.01;101919.78;5032062;28;20071;-51
2022/08/30 04:32:43;;;;;;;10.45;5.40;;;;;;;16.04;99.37;101925.81;5015668;28;20049;-50
2022/08/30 04:35:13;;;;;;;9.18;5.05;;;;;;;16.06;98.98;101920.84;4994377;28;20523;-49
2022/08/30 04:37:40;;;;;;;10.00;4.80;;;;;;;16.12;99.37;101928.81;5022998;28;20050;-52
2022/08/30 04:40:08;;;;;;;9.13;5.30;;;;;;;16.14;98.16;101925.81;5024095;28;20048;-50
2022/08/30 04:42:37;;;;;;;12.55;5.28;;;;;;;16.08;98.95;101932.41;5017071;28;20045;-49
2022/08/30 04:45:07;;;;;;;10.88;5.82;;;;;;;16.08;98.44;101938.72;5029043;28;20052;-49
2022/08/30 04:47:36;;;;;;;7.95;5.05;;;;;;;16.10;99.17;101930.22;5012259;28;20053;-53
2022/08/30 04:50:05;;;;;;;9.43;5.38;;;;;;;16.09;98.38;101931.28;5015567;28;20095;-50
2022/08/30 04:52:32;;;;;;;10.18;6.32;;;;;;;16.08;98.61;101935.97;5021298;28;20038;-50
2022/08/30 04:55:00;;;;;;;11.55;5.22;;;;;;;16.02;99.24;101939.84;5018503;28;20056;-49
2022/08/30 04:57:28;;;;;;;9.18;5.60;;;;;;;16.00;99.17;101944.78;5037364;28;20057;-50
2022/08/30 04:59:56;;;;;;;8.98;5.63;;;;;;;16.03;99.01;101946.97;5043989;28;20052;-53
2022/08/30 05:02:24;;;;;;;8.90;5.50;;;;;;;16.02;99.05;101950.84;5049619;28;20049;-49
2022/08/30 05:07:40;;;;;;;9.35;5.22;;;;;;;15.82;100.00;101953.59;5034347;28;20041;-49
2022/08/30 05:10:08;;;;;;;10.48;6.22;;;;;;;15.80;100.00;101950.28;5043180;28;20121;-50
2022/08/30 05:12:39;;;;;;;8.45;5.22;;;;;;;15.83;100.00;101947.84;5054882;28;20038;-49
2022/08/30 05:15:07;;;;;;;9.07;5.95;;;;;;;15.95;100.00;101944.81;5033044;28;20041;-49
2022/08/30 05:17:37;;;;;;;8.52;5.88;;;;;;;15.93;99.54;101958.81;5032110;28;20447;-49
2022/08/30 05:20:06;;;;;;;12.10;5.28;;;;;;;15.91;99.96;101949.19;5032239;28;20045;-49
2022/08/30 05:22:40;;;;;;;13.32;6.55;;;;;;;15.93;100.00;101958.00;5014948;28;20041;-46
2022/08/30 05:25:08;;;;;;;9.80;5.63;;;;;;;15.88;99.96;101953.31;4987223;28;20045;-49
2022/08/30 05:27:41;;;;;;;12.98;5.93;;;;;;;15.85;100.00;101958.53;5032233;28;20045;-49
2022/08/30 05:30:09;;;;;;;8.35;6.03;;;;;;;15.85;100.00;101955.78;5030174;28;20049;-50
2022/08/30 05:32:37;;;;;;;9.43;5.47;;;;;;;15.82;100.00;101953.59;5024178;28;20033;-50
2022/08/30 05:35:06;;;;;;;10.23;5.80;;;;;;;15.94;100.00;101956.88;5014767;28;20432;-51
2022/08/30 05:37:34;;;;;;;8.77;5.10;;;;;;;16.00;99.53;101958.53;5015537;28;20057;-51
2022/08/30 05:40:02;;;;;;;10.60;5.32;;;;;;;15.99;99.00;101965.13;5016813;28;20486;-50
2022/08/30 05:42:40;;;;;;;9.85;6.07;;;;;;;15.91;99.42;101963.75;5036196;28;20053;-52
2022/08/30 05:45:09;;;;;;;10.05;6.10;;;;;;;15.88;99.81;101971.75;5013979;28;20492;-51
2022/08/30 05:47:37;;;;;;;11.18;5.93;;;;;;;15.83;100.00;101963.50;5031357;28;20052;-49
2022/08/30 05:50:05;;;;;;;8.23;5.50;;;;;;;15.96;99.89;101968.44;5031670;28;20045;-50
2022/08/30 05:52:38;;;;;;;10.27;5.97;;;;;;;16.03;99.43;101970.91;5033119;28;20041;-50
2022/08/30 05:55:07;;;;;;;8.45;5.38;;;;;;;15.99;99.59;101973.38;5012760;28;20054;-50
2022/08/30 05:57:36;;;;;;;10.55;5.68;;;;;;;15.94;99.90;101970.63;5032534;28;20500;-49
2022/08/30 06:00:08;;;;;;;11.73;6.30;;;;;;;15.96;99.84;101968.44;5015509;28;20045;-52
2022/08/30 06:02:40;;;;;;;11.73;5.22;;;;;;;16.11;99.26;101976.66;5032907;28;20037;-49
2022/08/30 06:05:09;;;;;;;11.10;5.93;;;;;;;16.12;98.88;101970.06;5015105;28;20488;-50
2022/08/30 06:07:42;;;;;;;13.70;5.80;;;;;;;16.10;98.95;101977.75;5014835;28;20061;-50
2022/08/30 06:10:11;;;;;;;8.90;5.32;;;;;;;16.11;99.21;101976.66;5017071;28;20060;-50
2022/08/30 06:12:39;;;;;;;18.42;6.07;;;;;;;16.14;99.09;101970.63;5047774;28;20522;-50
2022/08/30 06:15:07;;;;;;;11.88;5.82;;;;;;;16.21;98.51;101975.00;4338834;28;10000241;-48
2022/08/30 06:17:35;;;;;;;10.70;5.95;;;;;;;16.27;98.55;101979.38;5030531;28;20037;-50
2022/08/30 06:20:03;;;;;;;8.88;5.13;;;;;;;16.28;98.17;101970.84;5035924;28;20099;-49
2022/08/30 06:22:31;;;;;;;10.60;6.10;;;;;;;16.25;98.29;101971.41;5030980;28;20125;-49
2022/08/30 06:24:58;;;;;;;11.05;5.10;;;;;;;16.27;97.82;101968.41;5028666;28;20048;-49
2022/08/30 06:27:26;;;;;;;10.43;5.97;;;;;;;16.29;98.05;101963.44;5028598;28;20039;-49
2022/08/30 06:29:54;;;;;;;12.45;5.70;;;;;;;16.36;97.15;101955.72;5030431;28;20037;-50
2022/08/30 06:32:22;;;;;;;14.57;5.80;;;;;;;16.34;97.67;101955.19;5028603;28;20049;-50
2022/08/30 06:34:50;;;;;;;13.32;6.20;;;;;;;16.40;97.43;101957.63;5010912;28;20059;-53
2022/08/30 06:37:17;;;;;;;10.88;5.45;;;;;;;16.45;97.15;101956.81;5010445;28;20062;-49
2022/08/30 06:39:57;;;;;;;13.13;5.95;;;;;;;16.51;96.62;101958.41;5029025;28;20420;-50
2022/08/30 06:42:30;;;;;;;12.27;5.47;;;;;;;16.54;96.30;101960.59;5011505;28;20049;-49
2022/08/30 06:45:00;;;;;;;13.27;5.05;;;;;;;16.56;96.58;101958.41;5012054;28;20041;-48
2022/08/30 06:47:29;;;;;;;10.73;5.47;;;;;;;16.59;96.45;101960.56;5028697;28;20045;-49
2022/08/30 06:49:57;;;;;;;7.15;4.47;;;;;;;16.68;95.37;101968.28;5025848;28;20430;-49
2022/08/30 06:52:25;;;;;;;9.13;4.82;;;;;;;16.74;95.12;101964.38;5011319;28;20087;-47
2022/08/30 06:54:57;;;;;;;7.10;4.53;;;;;;;16.74;94.84;101970.72;5009822;28;20041;-49
2022/08/30 06:57:25;;;;;;;8.13;3.95;;;;;;;16.81;94.72;101967.69;5012900;28;20772;-48
2022/08/30 06:59:56;;;;;;;7.68;4.30;;;;;;;16.86;94.14;101975.94;5013297;28;20056;-49
2022/08/30 07:02:24;;;;;;;10.52;4.68;;;;;;;16.89;93.08;101972.63;5014838;28;20488;-49
2022/08/30 07:04:52;;;;;;;11.98;4.78;;;;;;;16.96;92.41;101970.38;5032528;28;20663;-50
2022/08/30 07:07:20;;;;;;;9.82;4.88;;;;;;;17.01;91.83;101970.34;5014926;28;20107;-51
2022/08/30 07:09:48;;;;;;;11.57;4.03;;;;;;;17.04;91.49;101967.03;5032880;28;20056;-49
2022/08/30 07:12:16;;;;;;;11.52;4.78;;;;;;;17.08;91.55;101963.69;5031725;28;20537;-50
2022/08/30 07:14:44;;;;;;;10.63;4.28;;;;;;;17.09;90.80;101957.91;5014405;28;20053;-50
2022/08/30 07:20:02;;;;;;;11.02;6.03;;;;;;;17.18;90.15;101966.41;5035409;28;20045;-48
2022/08/30 07:22:32;;;;;;;20.42;6.68;;;;;;;17.25;89.68;101973.25;5035110;28;20053;-48
2022/08/30 07:25:00;;;;;;;20.10;5.85;;;;;;;17.33;89.51;101969.06;5016187;28;20065;-48
2022/08/30 07:27:28;;;;;;;7.22;3.95;;;;;;;17.34;88.76;101967.97;5035209;28;20041;-49
2022/08/30 07:29:57;;;;;;;9.52;4.25;;;;;;;17.41;88.25;101973.13;5039621;28;20037;-51
2022/08/30 07:32:25;;;;;;;11.25;5.15;;;;;;;17.45;88.06;101977.78;5035832;28;20046;-50
2022/08/30 07:34:53;;;;;;;14.75;4.47;;;;;;;17.50;87.37;101973.34;5034964;28;20037;-48
2022/08/30 07:37:20;;;;;;;10.07;3.80;;;;;;;17.54;86.28;101980.75;5034004;28;20502;-49
2022/08/30 07:39:48;;;;;;;9.52;3.58;;;;;;;17.58;85.71;101986.50;5036150;28;20036;-49
2022/08/30 07:42:17;;;;;;;14.02;3.80;;;;;;;17.59;84.58;101980.72;5033733;28;20067;-52
2022/08/30 07:44:45;;;;;;;9.85;3.58;;;;;;;17.60;84.82;101990.63;5033872;28;20051;-50
2022/08/30 07:47:12;;;;;;;9.45;3.65;;;;;;;17.64;85.02;101980.69;5000454;28;20049;-49
2022/08/30 07:49:40;;;;;;;8.73;3.63;;;;;;;17.72;83.65;101986.69;5034886;28;20412;-50
2022/08/30 07:52:08;;;;;;;10.77;3.50;;;;;;;17.76;83.17;101996.84;5035482;28;20064;-51
2022/08/30 07:54:35;;;;;;;9.02;3.65;;;;;;;17.81;82.26;101988.56;5034298;28;20040;-53
2022/08/30 07:57:03;;;;;;;6.00;3.42;;;;;;;17.88;81.39;101996.53;5033399;28;20088;-50
2022/08/30 07:59:31;;;;;;;7.47;3.20;;;;;;;17.89;81.01;101992.63;5034199;28;20117;-51
2022/08/30 08:02:02;;;;;;;8.00;3.30;;;;;;;17.89;80.79;101989.88;5034193;28;20045;-47
2022/08/30 08:04:31;;;;;;;9.80;3.70;;;;;;;17.91;80.41;101992.34;5034069;28;20064;-49
2022/08/30 08:07:00;;;;;;;7.97;3.20;;;;;;;17.97;80.58;101993.97;5033479;28;20057;-52
2022/08/30 08:09:27;;;;;;;14.68;3.60;;;;;;;18.00;80.38;101996.97;5032951;28;20044;-50
2022/08/30 08:11:55;;;;;;;8.63;3.53;;;;;;;18.06;79.44;101993.06;5035427;28;20095;-52
2022/08/30 08:14:23;;;;;;;10.13;3.20;;;;;;;18.09;79.55;101988.91;5034337;28;20129;-47
2022/08/30 08:16:51;;;;;;;10.68;3.80;;;;;;;18.10;79.26;101988.59;5034080;28;20745;-50
2022/08/30 08:19:19;;;;;;;10.05;3.63;;;;;;;18.14;79.48;101988.03;5016280;28;20056;-49
2022/08/30 08:21:46;;;;;;;11.00;4.03;;;;;;;18.18;79.09;102000.91;5034531;28;20049;-49
2022/08/30 08:24:27;;;;;;;9.52;3.63;;;;;;;18.20;78.42;101998.69;5016485;28;20033;-50
2022/08/30 08:26:55;;;;;;;7.55;3.47;;;;;;;18.19;78.34;102001.75;5033707;28;20049;-48
2022/08/30 08:29:23;;;;;;;10.05;3.53;;;;;;;18.23;78.15;101992.63;5033507;28;20040;-50
2022/08/30 08:31:50;;;;;;;10.30;3.67;;;;;;;18.26;78.04;102003.06;5039061;28;20041;-50
2022/08/30 08:34:22;;;;;;;7.22;3.42;;;;;;;18.38;77.05;101993.56;5033469;28;20045;-51
2022/08/30 08:36:50;;;;;;;12.95;3.72;;;;;;;18.41;76.76;101996.56;5034340;28;20057;-50
2022/08/30 08:39:17;;;;;;;7.50;3.10;;;;;;;18.46;76.79;101990.97;5033268;28;20037;-50
2022/08/30 08:42:04;;;;;;;10.27;3.00;;;;;;;18.53;76.50;101996.16;5016403;28;20041;-49
2022/08/30 08:44:50;;;;;;;7.03;3.08;;;;;;;18.61;75.88;101987.22;5033568;28;20053;-50
2022/08/30 08:47:29;;;;;;;5.90;3.17;;;;;;;18.76;74.78;101999.19;5032957;28;20057;-49
2022/08/30 08:50:00;;;;;;;7.80;3.13;;;;;;;18.84;74.58;102001.34;5015528;28;20095;-50
2022/08/30 08:56:09;;;;;;;6.20;2.80;;;;;;;18.91;74.25;101999.06;5016503;28;20071;-48
2022/08/30 08:58:41;;;;;;;9.30;3.40;;;;;;;18.96;73.32;101999.00;4998827;28;20046;-49
2022/08/30 09:01:11;;;;;;;8.52;3.50;;;;;;;19.00;72.76;102002.81;5033517;28;20061;-50
2022/08/30 09:03:39;;;;;;;9.60;3.20;;;;;;;18.99;72.41;102000.34;5016558;28;20037;-48
2022/08/30 09:06:33;;;;;;;5.05;2.70;;;;;;;19.00;71.72;101999.19;5020661;28;20042;-49
2022/08/30 09:09:01;;;;;;;9.63;2.97;;;;;;;19.05;71.54;102001.91;5005412;28;20041;-47
2022/08/30 09:11:32;;;;;;;12.15;2.80;;;;;;;19.15;70.88;101997.06;5036217;28;20463;-53
2022/08/30 09:14:00;;;;;;;8.10;2.90;;;;;;;19.21;70.67;101999.75;5031269;28;20052;-50
2022/08/30 09:16:48;;;;;;;7.35;2.88;;;;;;;19.15;70.83;102007.31;5031855;28;20046;-50
2022/08/30 09:19:36;;;;;;;7.03;2.90;;;;;;;19.12;70.38;102005.97;5037441;28;20112;-52
2022/08/30 09:22:15;;;;;;;5.88;2.40;;;;;;;19.14;70.46;102006.47;5037764;28;20519;-50
2022/08/30 09:24:52;;;;;;;5.03;2.63;;;;;;;19.16;70.33;102001.47;5047185;28;20080;-51
2022/08/30 09:27:45;;;;;;;8.40;3.00;;;;;;;19.21;69.94;101999.75;5030857;28;20394;-47
2022/08/30 09:30:25;;;;;;;7.50;3.05;;;;;;;19.27;69.79;102004.09;5035907;28;20610;-52
2022/08/30 09:32:59;;;;;;;9.38;3.08;;;;;;;19.35;69.24;102006.19;5016191;28;20048;-50
2022/08/30 09:35:50;;;;;;;7.22;2.70;;;;;;;19.45;68.57;102000.50;5015895;28;20046;-50
2022/08/30 09:38:21;;;;;;;7.00;3.00;;;;;;;19.51;68.20;101999.31;5005127;28;20056;-48
2022/08/30 09:40:57;;;;;;;9.00;2.42;;;;;;;19.55;67.77;101997.59;5015775;28;20044;-50
2022/08/30 09:43:27;;;;;;;6.10;2.50;;;;;;;19.59;67.50;102006.91;5015619;28;20573;-50
2022/08/30 09:46:01;;;;;;;4.88;2.50;;;;;;;19.55;67.47;102016.97;5032874;28;20100;-49
2022/08/30 09:48:36;;;;;;;10.75;3.20;;;;;;;19.53;67.30;102001.75;5032249;28;20500;-50
2022/08/30 09:51:11;;;;;;;8.95;3.00;;;;;;;19.54;66.97;102004.25;5032830;28;20419;-49
2022/08/30 09:53:54;;;;;;;7.40;2.75;;;;;;;19.54;67.14;102011.72;5015433;28;20037;-48
2022/08/30 09:57:32;;;;;;;6.10;2.60;;;;;;;19.52;66.55;102003.72;5019170;28;20049;-48
2022/08/30 10:00:27;;;;;;;8.77;3.10;;;;;;;19.54;66.56;102004.25;4971474;28;20055;-52
2022/08/30 10:03:39;;;;;;;6.70;2.67;;;;;;;19.68;66.05;101998.00;4955998;28;20067;-51
2022/08/30 10:06:17;;;;;;;5.75;2.42;;;;;;;19.72;65.53;102002.63;5009306;28;20041;-49
2022/08/30 10:08:46;;;;;;;9.18;2.40;;;;;;;19.81;65.36;101996.41;5000162;28;20042;-50
2022/08/30 10:11:24;;;;;;;7.38;2.50;;;;;;;19.84;64.90;101993.81;5033270;28;20037;-48
2022/08/30 10:13:58;;;;;;;5.90;2.50;;;;;;;19.82;64.49;101992.50;5019989;28;20080;-50
2022/08/30 10:16:25;;;;;;;4.97;2.05;;;;;;;19.80;64.48;101990.03;5012446;28;20038;-51
2022/08/30 10:19:02;;;;;;;5.95;2.40;;;;;;;19.85;64.27;101994.69;5013441;28;20041;-52
2022/08/30 10:21:43;;;;;;;5.78;2.38;;;;;;;19.95;64.26;101998.06;4320027;28;10000636;-52
2022/08/30 10:24:14;;;;;;;4.90;2.35;;;;;;;19.97;63.58;102000.56;5005771;28;20602;-52
2022/08/30 10:26:58;;;;;;;7.35;2.53;;;;;;;19.95;63.82;101998.06;4993525;28;20034;-53
2022/08/30 10:29:33;;;;;;;6.43;2.40;;;;;;;19.90;63.85;101992.63;5011566;28;20045;-48
2022/08/30 10:32:39;;;;;;;5.65;2.20;;;;;;;20.01;63.64;101993.25;5030821;28;20038;-48
2022/08/30 10:35:07;;;;;;;8.30;2.33;;;;;;;20.16;63.19;101987.47;5004259;28;20054;-52
2022/08/30 10:37:43;;;;;;;10.32;2.80;;;;;;;20.34;62.49;101987.69;5029797;28;20052;-53
2022/08/30 10:43:53;;;;;;;6.20;2.40;;;;;;;20.58;60.54;101988.34;5015847;28;20050;-55
2022/08/30 10:46:33;;;;;;;6.68;2.33;;;;;;;20.62;60.32;101986.63;5035693;28;20766;-55
2022/08/30 10:49:04;;;;;;;8.23;2.20;;;;;;;20.60;60.29;101985.28;5028414;28;20523;-55
2022/08/30 10:51:54;;;;;;;6.70;2.60;;;;;;;20.65;60.17;101985.19;5018640;28;20045;-55
2022/08/30 10:54:46;;;;;;;9.43;2.58;;;;;;;20.72;59.59;101974.50;5016829;28;20037;-52
2022/08/30 10:57:15;;;;;;;8.77;2.83;;;;;;;20.75;59.57;101982.19;5032380;28;20045;-52
2022/08/30 10:59:51;;;;;;;6.85;2.22;;;;;;;20.85;59.31;101972.84;5015009;28;20049;-52
2022/08/30 11:02:22;;;;;;;6.57;2.40;;;;;;;20.89;59.25;101976.66;5015497;28;20052;-53
2022/08/30 11:05:19;;;;;;;7.88;2.78;;;;;;;20.84;60.38;101990.63;5032192;28;20049;-56
2022/08/30 11:07:59;;;;;;;5.40;2.40;;;;;;;20.77;59.27;101974.41;4987525;28;20051;-56
2022/08/30 11:10:46;;;;;;;8.20;2.50;;;;;;;20.75;59.12;101971.13;5005625;28;20068;-55
2022/08/30 11:13:22;;;;;;;6.47;2.60;;;;;;;20.82;58.81;101968.75;5033193;28;20457;-52
2022/08/30 11:16:03;;;;;;;7.93;2.75;;;;;;;20.89;58.13;101970.28;5034104;28;20087;-56
2022/08/30 11:18:40;;;;;;;5.53;2.30;;;;;;;20.92;58.19;101964.13;5035973;28;20044;-57
2022/08/30 11:21:19;;;;;;;9.15;2.75;;;;;;;21.02;57.58;101963.88;5027563;28;20046;-55
2022/08/30 11:24:03;;;;;;;4.20;2.10;;;;;;;21.08;57.01;101962.66;5020383;28;20207;-54
2022/08/30 11:26:47;;;;;;;7.63;2.80;;;;;;;21.12;56.48;101958.16;5037741;28;20037;-55
2022/08/30 11:29:41;;;;;;;3.92;2.35;;;;;;;21.10;56.55;101960.41;5018058;28;20405;-53
2022/08/30 11:32:12;;;;;;;7.18;2.35;;;;;;;21.08;56.36;101959.88;5036427;28;20041;-54
2022/08/30 11:34:46;;;;;;;4.60;2.45;;;;;;;21.08;56.29;101962.66;5017888;28;20042;-54
2022/08/30 11:37:35;;;;;;;6.85;2.25;;;;;;;21.17;55.77;101959.97;5031273;28;20048;-55
2022/08/30 11:40:21;;;;;;;5.72;2.25;;;;;;;21.24;55.03;101966.72;5032200;28;20037;-53
2022/08/30 11:42:50;;;;;;;;;;;;;;;21.26;55.63;101953.38;5034803;28;20045;-51
2022/08/30 11:45:22;;;;;;;5.07;2.30;;;;;;;21.35;54.27;101960.94;5017987;28;19928;-55
2022/08/30 11:47:53;;;;;;;4.22;2.13;;;;;;;21.36;54.17;101957.03;5000685;28;20906;-55
2022/08/30 11:50:46;;;;;;;13.38;2.50;;;;;;;21.48;53.22;101954.56;5033979;28;20542;-55
2022/08/30 11:53:44;;;;;;;6.07;2.55;;;;;;;21.51;53.40;101953.13;5014417;28;20041;-53
2022/08/30 11:56:49;;;;;;;10.60;2.50;;;;;;;21.45;52.53;101955.16;5027176;28;20064;-52